createdAt,value
2022-11-03T00:01:14.407Z,2.10
2022-11-03T00:03:41.263Z,2.53
2022-11-03T00:06:08.709Z,3.43
2022-11-03T00:08:37.632Z,2.30
2022-11-03T00:11:08.162Z,2.90
2022-11-03T00:13:35.858Z,2.50
2022-11-03T00:16:03.334Z,2.63
2022-11-03T00:18:30.386Z,2.90
2022-11-03T00:20:58.867Z,2.63
2022-11-03T00:23:30.583Z,3.00
2022-11-03T00:26:09.868Z,3.40
2022-11-03T00:28:37.670Z,3.10
2022-11-03T00:31:08.566Z,3.40
2022-11-03T00:33:35.592Z,2.87
2022-11-03T00:36:03.121Z,3.50
2022-11-03T00:38:30.276Z,3.60
2022-11-03T00:40:58.607Z,2.20
2022-11-03T00:43:28.316Z,4.47
2022-11-03T00:45:55.792Z,3.40
2022-11-03T00:48:22.986Z,3.43
2022-11-03T00:50:49.776Z,3.60
2022-11-03T00:53:16.619Z,4.17
2022-11-03T00:55:49.396Z,4.00
2022-11-03T00:58:16.242Z,3.80
2022-11-03T01:00:44.478Z,3.60
2022-11-03T01:03:11.348Z,3.30
2022-11-03T01:05:40.635Z,3.37
2022-11-03T01:08:07.561Z,3.07
2022-11-03T01:10:37.196Z,3.60
2022-11-03T01:13:04.308Z,3.33
2022-11-03T01:15:31.289Z,3.40
2022-11-03T01:17:59.531Z,2.60
2022-11-03T01:20:28.249Z,3.10
2022-11-03T01:22:55.089Z,2.47
2022-11-03T01:25:21.954Z,2.43
2022-11-03T01:27:48.781Z,3.37
2022-11-03T01:30:15.539Z,2.53
2022-11-03T01:32:42.421Z,1.87
2022-11-03T01:35:10.817Z,2.40
2022-11-03T01:37:37.654Z,3.47
2022-11-03T01:40:05.409Z,2.37
2022-11-03T01:42:32.286Z,2.67
2022-11-03T01:44:59.203Z,2.57
2022-11-03T01:47:29.952Z,2.53
2022-11-03T01:50:02.404Z,2.43
2022-11-03T01:52:34.114Z,2.67
2022-11-03T01:55:04.574Z,2.80
2022-11-03T01:57:35.947Z,3.40
2022-11-03T02:00:04.222Z,2.83
2022-11-03T02:02:31.129Z,3.00
2022-11-03T02:05:00.915Z,2.60
2022-11-03T02:07:35.119Z,2.10
2022-11-03T02:10:02.412Z,1.90
2022-11-03T02:12:30.314Z,2.80
2022-11-03T02:15:01.141Z,2.90
2022-11-03T02:17:30.340Z,3.00
2022-11-03T02:19:59.832Z,2.80
2022-11-03T02:23:02.424Z,3.00
2022-11-03T02:25:44.974Z,2.70
2022-11-03T02:28:13.495Z,2.67
2022-11-03T02:30:45.483Z,2.97
2022-11-03T02:33:28.234Z,2.63
2022-11-03T02:35:59.782Z,2.50
2022-11-03T02:38:30.713Z,2.93
2022-11-03T02:41:02.964Z,3.00
2022-11-03T02:43:30.231Z,2.47
2022-11-03T02:45:57.352Z,2.20
2022-11-03T02:48:24.298Z,2.53
2022-11-03T02:50:51.257Z,2.30
2022-11-03T02:53:19.611Z,2.70
2022-11-03T02:55:52.752Z,2.50
2022-11-03T02:58:29.723Z,2.97
2022-11-03T03:01:02.841Z,3.73
2022-11-03T03:03:34.284Z,2.00
2022-11-03T03:06:04.886Z,3.23
2022-11-03T03:08:33.115Z,2.57
2022-11-03T03:11:03.163Z,2.43
2022-11-03T03:13:32.255Z,2.03
2022-11-03T03:16:09.039Z,2.57
2022-11-03T03:18:45.887Z,3.67
2022-11-03T03:21:16.355Z,2.43
2022-11-03T03:23:49.131Z,1.80
2022-11-03T03:26:21.853Z,2.00
2022-11-03T03:28:53.446Z,2.07
2022-11-03T03:31:23.243Z,2.30
2022-11-03T03:33:59.677Z,2.97
2022-11-03T03:36:33.996Z,3.13
2022-11-03T03:39:03.875Z,2.10
2022-11-03T03:41:32.038Z,2.47
2022-11-03T03:44:03.101Z,2.30
2022-11-03T03:46:35.451Z,2.67
2022-11-03T03:49:02.717Z,2.20
2022-11-03T03:51:31.437Z,2.27
2022-11-03T03:53:58.380Z,1.90
2022-11-03T03:56:30.168Z,2.47
2022-11-03T03:58:57.031Z,2.73
2022-11-03T04:01:25.380Z,2.47
2022-11-03T04:03:52.301Z,2.40
2022-11-03T04:06:19.143Z,2.20
2022-11-03T04:08:45.990Z,2.37
2022-11-03T04:11:12.911Z,2.83
2022-11-03T04:13:39.784Z,2.53
2022-11-03T04:16:09.583Z,2.13
2022-11-03T04:18:39.009Z,3.03
2022-11-03T04:21:06.773Z,2.87
2022-11-03T04:23:33.568Z,2.50
2022-11-03T04:26:01.051Z,2.37
2022-11-03T04:28:28.509Z,3.03
2022-11-03T04:30:58.947Z,3.03
2022-11-03T04:33:26.888Z,3.27
2022-11-03T04:35:57.617Z,2.57
2022-11-03T04:38:27.070Z,2.17
2022-11-03T04:40:56.357Z,2.53
2022-11-03T04:43:30.014Z,2.53
2022-11-03T04:45:56.848Z,2.90
2022-11-03T04:48:25.254Z,3.13
2022-11-03T04:50:56.153Z,1.83
2022-11-03T04:53:23.316Z,2.67
2022-11-03T04:55:53.176Z,3.00
2022-11-03T04:58:21.644Z,2.53
2022-11-03T05:00:49.682Z,2.87
2022-11-03T05:03:22.315Z,2.87
2022-11-03T05:05:49.892Z,2.60
2022-11-03T05:08:19.506Z,2.70
2022-11-03T05:10:46.771Z,2.63
2022-11-03T05:13:18.767Z,2.77
2022-11-03T05:15:46.105Z,3.00
2022-11-03T05:18:19.431Z,3.30
2022-11-03T05:20:49.899Z,2.93
2022-11-03T05:23:19.440Z,4.20
2022-11-03T05:25:49.491Z,3.70
2022-11-03T05:28:24.031Z,2.60
2022-11-03T05:30:51.524Z,3.93
2022-11-03T05:33:26.665Z,3.20
2022-11-03T05:35:54.085Z,3.83
2022-11-03T05:38:23.786Z,3.23
2022-11-03T05:40:52.109Z,3.40
2022-11-03T05:43:19.911Z,3.10
2022-11-03T05:45:48.076Z,3.67
2022-11-03T05:48:22.546Z,3.77
2022-11-03T05:50:49.698Z,4.20
2022-11-03T05:53:30.331Z,3.90
2022-11-03T05:56:00.033Z,4.57
2022-11-03T05:58:31.637Z,3.87
2022-11-03T06:01:00.374Z,3.13
2022-11-03T06:03:29.993Z,3.23
2022-11-03T06:05:58.568Z,3.00
2022-11-03T06:08:28.889Z,3.90
2022-11-03T06:10:58.458Z,3.40
2022-11-03T06:13:29.780Z,2.40
2022-11-03T06:15:59.563Z,4.20
2022-11-03T06:18:30.911Z,3.03
2022-11-03T06:21:01.895Z,2.60
2022-11-03T06:23:28.788Z,2.97
2022-11-03T06:25:57.947Z,4.37
2022-11-03T06:28:30.937Z,3.20
2022-11-03T06:30:57.953Z,2.97
2022-11-03T06:33:27.474Z,4.00
2022-11-03T06:35:59.214Z,4.17
2022-11-03T06:38:28.609Z,3.00
2022-11-03T06:40:56.962Z,3.17
2022-11-03T06:43:30.862Z,3.00
2022-11-03T06:45:59.261Z,5.10
2022-11-03T06:48:28.809Z,3.50
2022-11-03T06:50:57.540Z,3.90
2022-11-03T06:53:27.434Z,3.90
2022-11-03T06:55:55.193Z,3.33
2022-11-03T06:58:30.684Z,3.60
2022-11-03T07:01:03.653Z,3.17
2022-11-03T07:03:32.472Z,3.60
2022-11-03T07:06:02.167Z,4.07
2022-11-03T07:08:32.020Z,3.50
2022-11-03T07:11:02.983Z,3.17
2022-11-03T07:13:33.143Z,3.57
2022-11-03T07:16:00.045Z,3.93
2022-11-03T07:18:31.272Z,3.40
2022-11-03T07:20:58.888Z,3.23
2022-11-03T07:23:29.878Z,5.13
2022-11-03T07:25:59.008Z,3.70
2022-11-03T07:28:31.905Z,4.73
2022-11-03T07:31:00.795Z,3.67
2022-11-03T07:33:29.853Z,3.70
2022-11-03T07:38:51.095Z,4.67
2022-11-03T07:41:20.856Z,3.27
2022-11-03T07:43:53.841Z,3.50
2022-11-03T07:46:22.795Z,3.80
2022-11-03T07:48:51.987Z,4.07
2022-11-03T07:51:22.074Z,3.13
2022-11-03T07:53:51.041Z,4.03
2022-11-03T07:56:20.565Z,4.33
2022-11-03T07:58:50.704Z,4.00
2022-11-03T08:01:24.778Z,3.47
2022-11-03T08:03:52.796Z,4.10
2022-11-03T08:06:20.069Z,3.63
2022-11-03T08:08:47.097Z,4.47
2022-11-03T08:13:40.760Z,3.33
2022-11-03T08:16:09.074Z,3.87
2022-11-03T08:18:35.955Z,3.33
2022-11-03T08:21:02.963Z,4.00
2022-11-03T08:23:30.133Z,3.60
2022-11-03T08:25:57.179Z,3.30
2022-11-03T08:28:24.096Z,3.83
2022-11-03T08:30:50.924Z,3.20
2022-11-03T08:33:19.402Z,3.67
2022-11-03T08:35:46.326Z,4.70
2022-11-03T08:38:13.169Z,3.77
2022-11-03T08:40:39.952Z,4.30
2022-11-03T08:43:06.839Z,3.27
2022-11-03T08:45:33.723Z,4.00
2022-11-03T08:48:03.621Z,4.00
2022-11-03T08:50:32.051Z,4.53
2022-11-03T08:52:58.936Z,3.73
2022-11-03T08:55:25.754Z,3.87
2022-11-03T08:57:52.687Z,3.73
2022-11-03T09:00:19.742Z,3.10
2022-11-03T09:02:46.845Z,3.30
2022-11-03T09:05:14.158Z,4.53
2022-11-03T09:10:34.404Z,2.80
2022-11-03T09:13:02.391Z,3.70
2022-11-03T09:15:29.207Z,3.50
2022-11-03T09:17:56.043Z,3.40
2022-11-03T09:20:23.190Z,2.83
2022-11-03T09:22:52.091Z,3.47
2022-11-03T09:25:19.262Z,3.93
2022-11-03T09:27:46.237Z,2.63
2022-11-03T09:30:14.366Z,3.20
2022-11-03T09:32:41.537Z,2.83
2022-11-03T09:35:08.987Z,3.67
2022-11-03T09:37:36.330Z,3.30
2022-11-03T09:40:05.672Z,2.90
2022-11-03T09:42:34.042Z,3.93
2022-11-03T09:45:01.816Z,3.60
2022-11-03T09:47:33.104Z,3.37
2022-11-03T09:50:00.514Z,3.80
2022-11-03T09:52:27.419Z,5.00
2022-11-03T09:54:55.017Z,3.80
2022-11-03T09:57:23.747Z,3.20
2022-11-03T09:59:51.292Z,3.20
2022-11-03T10:02:25.078Z,3.47
2022-11-03T10:04:53.887Z,3.93
2022-11-03T10:07:21.672Z,2.10
2022-11-03T10:09:50.947Z,3.83
2022-11-03T10:12:18.319Z,4.20
2022-11-03T10:14:47.746Z,3.40
2022-11-03T10:17:19.002Z,3.50
2022-11-03T10:19:49.151Z,4.47
2022-11-03T10:22:16.137Z,3.60
2022-11-03T10:24:43.379Z,4.50
2022-11-03T10:27:21.862Z,3.03
2022-11-03T10:43:33.926Z,2.77
2022-11-03T10:46:49.092Z,4.20
2022-11-03T10:49:31.027Z,3.47
2022-11-03T10:59:20.188Z,3.57
2022-11-03T11:01:52.767Z,4.20
2022-11-03T11:04:20.796Z,4.33
2022-11-03T11:06:50.550Z,3.53
2022-11-03T11:09:22.196Z,4.30
2022-11-03T11:12:03.179Z,3.63
2022-11-03T11:14:51.093Z,4.60
2022-11-03T11:17:43.001Z,3.27
2022-11-03T11:20:33.476Z,5.00
2022-11-03T11:23:49.012Z,4.03
2022-11-03T11:26:42.618Z,5.10
2022-11-03T11:29:51.727Z,4.57
2022-11-03T11:32:58.464Z,3.70
2022-11-03T11:36:04.728Z,3.40
2022-11-03T11:39:05.035Z,3.90
2022-11-03T11:42:07.007Z,4.50
2022-11-03T11:44:56.044Z,3.57
2022-11-03T11:47:49.284Z,3.70
2022-11-03T11:50:30.449Z,2.80
2022-11-03T11:53:19.862Z,3.17
2022-11-03T11:55:52.775Z,3.63
2022-11-03T11:58:27.856Z,3.47
2022-11-03T12:01:00.433Z,3.13
2022-11-03T12:03:30.908Z,4.00
2022-11-03T12:05:59.034Z,2.93
2022-11-03T12:08:28.450Z,3.00
2022-11-03T12:10:56.558Z,3.27
2022-11-03T12:13:41.274Z,2.10
2022-11-03T12:16:08.115Z,2.70
2022-11-03T12:18:40.195Z,2.50
2022-11-03T12:21:11.368Z,3.20
2022-11-03T12:23:40.720Z,3.20
2022-11-03T12:26:15.233Z,3.17
2022-11-03T12:28:42.063Z,3.17
2022-11-03T12:31:08.867Z,2.70
2022-11-03T12:33:35.586Z,3.03
2022-11-03T12:36:02.336Z,2.27
2022-11-03T12:38:30.442Z,2.30
2022-11-03T12:40:57.164Z,3.13
2022-11-03T12:43:23.871Z,1.90
2022-11-03T12:45:50.643Z,2.43
2022-11-03T12:48:17.354Z,1.90
2022-11-03T12:50:45.631Z,2.83
2022-11-03T12:53:12.320Z,3.07
2022-11-03T12:55:43.667Z,2.30
2022-11-03T12:58:11.624Z,2.23
2022-11-03T13:00:38.395Z,2.17
2022-11-03T13:03:05.431Z,2.03
2022-11-03T13:05:32.354Z,2.50
2022-11-03T13:07:59.103Z,3.00
2022-11-03T13:10:25.815Z,2.57
2022-11-03T13:12:53.897Z,2.07
2022-11-03T13:15:20.635Z,2.60
2022-11-03T13:20:34.962Z,2.63
2022-11-03T13:23:01.856Z,2.67
2022-11-03T13:41:09.574Z,2.30
2022-11-03T13:43:40.241Z,3.00
2022-11-03T13:50:12.538Z,2.53
2022-11-03T13:52:38.552Z,3.17
2022-11-03T14:00:40.904Z,2.37
2022-11-03T14:05:54.459Z,2.63
2022-11-03T14:08:21.279Z,2.37
2022-11-03T14:10:48.025Z,2.00
2022-11-03T14:13:16.082Z,2.00
2022-11-03T14:15:42.805Z,2.47
2022-11-03T14:18:09.513Z,1.93
2022-11-03T14:20:36.251Z,1.90
2022-11-03T14:23:03.039Z,1.97
2022-11-03T14:25:29.759Z,2.90
2022-11-03T14:27:56.564Z,3.00
2022-11-03T14:30:24.727Z,2.40
2022-11-03T14:32:55.397Z,1.90
2022-11-03T14:35:25.096Z,1.77
2022-11-03T14:37:51.954Z,2.10
2022-11-03T14:40:18.694Z,2.10
2022-11-03T14:42:45.464Z,2.30
2022-11-03T14:45:12.178Z,2.30
2022-11-03T14:47:41.061Z,2.13
2022-11-03T14:50:08.124Z,2.97
2022-11-03T14:52:34.844Z,2.30
2022-11-03T14:55:01.561Z,2.47
2022-11-03T14:57:28.336Z,2.00
2022-11-03T14:59:55.072Z,3.07
2022-11-03T15:02:21.975Z,2.33
2022-11-03T15:04:50.389Z,1.70
2022-11-03T15:07:17.081Z,2.20
2022-11-03T15:09:43.834Z,1.60
2022-11-03T15:12:10.553Z,2.10
2022-11-03T15:14:37.314Z,1.70
2022-11-03T15:17:04.075Z,1.60
2022-11-03T15:19:30.866Z,1.97
2022-11-03T15:21:59.344Z,2.33
2022-11-03T15:27:13.038Z,2.20
2022-11-03T15:29:40.125Z,2.17
2022-11-03T15:32:07.092Z,2.73
2022-11-03T15:34:33.998Z,2.00
2022-11-03T15:37:02.138Z,2.10
2022-11-03T15:39:28.840Z,1.97
2022-11-03T15:41:55.574Z,2.27
2022-11-03T15:44:22.378Z,1.57
2022-11-03T15:46:49.094Z,2.30
2022-11-03T15:49:15.840Z,1.67
2022-11-03T15:51:42.586Z,2.07
2022-11-03T15:54:10.909Z,1.80
2022-11-03T15:56:37.714Z,2.20
2022-11-03T15:59:04.530Z,1.80
2022-11-03T16:01:31.490Z,1.90
2022-11-03T16:03:58.455Z,1.70
2022-11-03T16:06:53.874Z,2.23
2022-11-03T16:09:16.047Z,2.07
2022-11-03T16:11:42.797Z,2.47
2022-11-03T16:14:10.413Z,2.50
2022-11-03T16:16:37.235Z,1.87
2022-11-03T16:19:04.034Z,2.13
2022-11-03T16:21:30.729Z,1.93
2022-11-03T16:24:15.603Z,2.80
2022-11-03T16:27:01.353Z,2.07
2022-11-03T16:33:58.522Z,2.97
2022-11-03T16:42:33.014Z,3.50
2022-11-03T16:45:02.543Z,2.63
2022-11-03T16:54:21.742Z,2.30
2022-11-03T17:00:15.711Z,3.87
2022-11-03T17:02:42.861Z,3.30
2022-11-03T17:05:10.779Z,3.10
2022-11-03T17:07:37.698Z,3.00
2022-11-03T17:10:05.076Z,3.50
2022-11-03T17:12:31.979Z,2.50
2022-11-03T17:14:59.034Z,4.43
2022-11-03T17:17:27.232Z,5.50
2022-11-03T17:19:54.025Z,3.20
2022-11-03T17:22:20.785Z,3.77
2022-11-03T17:24:49.452Z,2.90
2022-11-03T17:27:27.124Z,2.93
2022-11-03T17:30:18.449Z,3.43
2022-11-03T17:32:47.696Z,3.13
2022-11-03T17:35:18.785Z,3.73
2022-11-03T17:37:45.622Z,4.60
2022-11-03T17:40:15.740Z,3.80
2022-11-03T17:42:42.530Z,3.30
2022-11-03T17:45:12.235Z,3.67
2022-11-03T17:47:39.022Z,3.30
2022-11-03T17:50:08.514Z,3.13
2022-11-03T17:52:36.545Z,2.30
2022-11-03T17:55:06.878Z,3.20
2022-11-03T17:57:33.781Z,2.70
2022-11-03T18:00:00.539Z,2.60
2022-11-03T18:02:30.802Z,4.37
2022-11-03T18:05:20.309Z,3.30
2022-11-03T18:07:48.699Z,3.40
2022-11-03T18:10:15.683Z,3.10
2022-11-03T18:12:45.349Z,3.10
2022-11-03T18:15:17.179Z,2.80
2022-11-03T18:17:44.130Z,3.90
2022-11-03T18:20:16.716Z,3.70
2022-11-03T18:22:43.597Z,3.73
2022-11-03T18:25:13.078Z,4.40
2022-11-03T18:27:40.005Z,3.67
2022-11-03T18:30:20.261Z,3.23
2022-11-03T18:32:54.830Z,3.50
2022-11-03T18:35:37.848Z,3.37
2022-11-03T18:38:42.362Z,3.43
2022-11-03T18:41:24.371Z,3.83
2022-11-03T18:43:59.570Z,2.93
2022-11-03T18:46:40.609Z,3.60
2022-11-03T18:49:07.447Z,3.63
2022-11-03T18:51:42.298Z,3.87
2022-11-03T18:54:13.153Z,3.70
2022-11-03T18:56:39.978Z,4.20
2022-11-03T18:59:38.710Z,3.13
2022-11-03T19:02:14.923Z,3.77
2022-11-03T19:04:46.759Z,3.60
2022-11-03T19:07:19.933Z,4.83
2022-11-03T19:09:48.451Z,5.03
2022-11-03T19:12:17.911Z,4.40
2022-11-03T19:14:49.265Z,4.80
2022-11-03T19:17:25.146Z,3.70
2022-11-03T19:19:52.489Z,3.90
2022-11-03T19:22:22.008Z,4.40
2022-11-03T19:24:49.196Z,3.77
2022-11-03T19:27:19.997Z,4.27
2022-11-03T19:29:48.348Z,3.23
2022-11-03T19:32:20.612Z,4.00
2022-11-03T19:34:50.627Z,3.40
2022-11-03T19:37:17.336Z,3.60
2022-11-03T19:39:45.515Z,5.20
2022-11-03T19:42:14.410Z,4.67
2022-11-03T19:44:41.175Z,3.80
2022-11-03T19:47:14.320Z,4.83
2022-11-03T19:49:43.322Z,3.90
2022-11-03T19:52:13.122Z,3.90
2022-11-03T19:54:40.619Z,3.87
2022-11-03T19:57:11.322Z,4.10
2022-11-03T19:59:38.417Z,4.67
2022-11-03T20:02:05.265Z,4.50
2022-11-03T20:04:32.153Z,4.17
2022-11-03T20:06:59.114Z,4.30
2022-11-03T20:11:57.640Z,4.03
2022-11-03T20:14:26.964Z,4.70
2022-11-03T20:16:55.958Z,4.00
2022-11-03T20:19:22.653Z,3.70
2022-11-03T20:21:50.050Z,4.13
2022-11-03T20:24:18.375Z,4.80
2022-11-03T20:26:45.248Z,5.50
2022-11-03T20:29:13.699Z,5.70
2022-11-03T20:31:43.584Z,4.80
2022-11-03T20:34:13.311Z,3.87
2022-11-03T20:36:40.364Z,4.87
2022-11-03T20:39:11.223Z,4.80
2022-11-03T20:41:40.811Z,4.90
2022-11-03T20:44:10.072Z,3.83
2022-11-03T20:46:48.447Z,4.60
2022-11-03T20:52:22.939Z,4.90
2022-11-03T20:54:49.973Z,5.03
2022-11-03T20:57:16.723Z,4.90
2022-11-03T20:59:43.474Z,4.73
2022-11-03T21:02:13.249Z,4.67
2022-11-03T21:04:40.514Z,4.13
2022-11-03T21:07:09.578Z,5.00
2022-11-03T21:09:36.378Z,5.10
2022-11-03T21:12:03.600Z,4.67
2022-11-03T21:14:31.538Z,4.57
2022-11-03T21:16:58.414Z,4.80
2022-11-03T21:19:28.978Z,4.60
2022-11-03T21:21:56.108Z,4.77
2022-11-03T21:24:22.821Z,6.83
2022-11-03T21:26:49.656Z,4.37
2022-11-03T21:29:23.173Z,4.67
2022-11-03T21:31:59.866Z,5.40
2022-11-03T21:34:27.999Z,5.10
2022-11-03T21:36:54.758Z,4.63
2022-11-03T21:39:21.559Z,6.00
2022-11-03T21:41:48.370Z,6.47
2022-11-03T21:44:15.175Z,4.43
2022-11-03T21:46:42.061Z,5.10
2022-11-03T21:49:09.159Z,5.37
2022-11-03T21:51:37.253Z,4.53
2022-11-03T21:54:04.325Z,5.70
2022-11-03T21:56:31.281Z,5.20
2022-11-03T21:58:58.066Z,5.90
2022-11-03T22:01:25.109Z,5.00
2022-11-03T22:03:51.990Z,4.70
2022-11-03T22:06:18.752Z,5.97
2022-11-03T22:08:46.883Z,5.70
2022-11-03T22:11:13.653Z,4.90
2022-11-03T22:13:40.402Z,5.97
2022-11-03T22:16:08.343Z,6.33
2022-11-03T22:18:35.063Z,4.43
2022-11-03T22:21:01.836Z,6.17
2022-11-03T22:23:29.997Z,5.00
2022-11-03T22:25:59.699Z,6.50
2022-11-03T22:28:26.523Z,5.43
2022-11-03T22:30:53.229Z,5.97
2022-11-03T22:33:19.975Z,6.67
2022-11-03T22:35:46.868Z,4.70
2022-11-03T22:38:15.929Z,5.57
2022-11-03T22:40:45.582Z,6.43
2022-11-03T22:43:14.140Z,7.00
2022-11-03T22:45:42.126Z,4.97
2022-11-03T22:48:08.841Z,7.23
2022-11-03T22:50:35.578Z,7.30
2022-11-03T22:53:02.348Z,6.27
2022-11-03T22:55:29.076Z,6.23
2022-11-03T22:57:55.825Z,6.93
2022-11-03T23:00:23.945Z,6.50
2022-11-03T23:02:53.379Z,6.00
2022-11-03T23:05:20.107Z,7.27
2022-11-03T23:07:46.851Z,6.80
2022-11-03T23:10:13.662Z,7.00
2022-11-03T23:12:40.445Z,5.77
2022-11-03T23:15:08.242Z,6.60
2022-11-03T23:17:36.321Z,6.00
2022-11-03T23:20:03.163Z,7.13
2022-11-03T23:22:29.955Z,6.33
2022-11-03T23:24:56.676Z,6.30
2022-11-03T23:27:23.472Z,7.17
2022-11-03T23:29:50.254Z,6.50
2022-11-03T23:32:17.070Z,6.50
2022-11-03T23:34:45.309Z,6.47
2022-11-03T23:37:12.061Z,5.80
2022-11-03T23:39:38.860Z,6.60
2022-11-03T23:42:06.107Z,6.40
2022-11-03T23:44:32.875Z,6.93
2022-11-03T23:46:59.668Z,7.20
2022-11-03T23:49:26.566Z,6.33
2022-11-03T23:51:55.021Z,6.57
2022-11-03T23:54:21.883Z,6.80
2022-11-03T23:56:48.662Z,5.90
2022-11-03T23:59:16.548Z,7.23
